Time;durP1;ratioP1;P1;durP2;ratioP2;P2;SDS_P1;SDS_P2;PMS_P1;PMS_P2;Temp;Humidity;BMP_temperature;BMP_pressure;BME280_temperature;BME280_humidity;BME280_pressure;Samples;Min_cycle;Max_cycle;Signal;HPM_P1;HPM_P2
2022/07/13 00:01:44;;;;;;;1.87;1.40;;;20.20;84.80;;;;;;5117888;28;20443;-94
2022/07/13 00:04:10;;;;;;;1.83;1.37;;;20.10;84.70;;;;;;5117928;28;20186;-94
2022/07/13 00:06:36;;;;;;;0.97;0.97;;;20.20;84.90;;;;;;5116879;28;20574;-94
2022/07/13 00:09:02;;;;;;;2.53;1.50;;;20.20;85.00;;;;;;5115373;28;20239;-92
2022/07/13 00:11:28;;;;;;;2.03;1.33;;;20.10;85.00;;;;;;5114057;28;20202;-92
2022/07/13 00:13:53;;;;;;;1.53;1.13;;;20.10;85.20;;;;;;5116633;28;20459;-95
2022/07/13 00:16:19;;;;;;;6.40;1.53;;;20.10;85.20;;;;;;5115317;28;20199;-94
2022/07/13 00:18:45;;;;;;;1.63;1.53;;;20.10;85.30;;;;;;5114143;28;20204;-94
2022/07/13 00:21:10;;;;;;;1.40;1.30;;;20.00;85.30;;;;;;5115526;28;20173;-92
2022/07/13 00:23:36;;;;;;;1.20;1.10;;;20.10;85.40;;;;;;5114050;28;20186;-95
2022/07/13 00:26:02;;;;;;;1.60;1.30;;;20.00;85.40;;;;;;5113964;28;20219;-95
2022/07/13 00:28:30;;;;;;;1.73;1.63;;;20.00;85.30;;;;;;5116203;28;20525;-95
2022/07/13 00:30:56;;;;;;;1.43;1.33;;;20.00;85.50;;;;;;5114053;28;20215;-96
2022/07/13 00:33:21;;;;;;;1.17;1.10;;;20.00;85.50;;;;;;5114841;28;20512;-96
2022/07/13 00:35:47;;;;;;;1.97;1.60;;;20.00;85.60;;;;;;5117201;28;20204;-95
2022/07/13 00:38:13;;;;;;;1.50;1.30;;;19.90;85.60;;;;;;5118415;28;20199;-95
2022/07/13 00:40:38;;;;;;;1.20;1.10;;;19.90;85.70;;;;;;5122062;28;20189;-92
2022/07/13 00:43:04;;;;;;;1.20;1.20;;;19.90;85.70;;;;;;5125677;28;20216;-91
2022/07/13 00:45:30;;;;;;;1.20;1.10;;;19.90;85.80;;;;;;5120034;28;20192;-95
2022/07/13 00:47:57;;;;;;;1.50;1.40;;;19.90;85.90;;;;;;5118068;28;20209;-92
2022/07/13 00:50:23;;;;;;;1.10;1.00;;;19.90;85.90;;;;;;5117931;28;20647;-92
2022/07/13 00:52:49;;;;;;;4.00;1.40;;;19.80;85.90;;;;;;5117894;28;20497;-95
2022/07/13 00:55:16;;;;;;;3.03;1.53;;;19.80;86.10;;;;;;5122580;28;20559;-92
2022/07/13 00:57:42;;;;;;;1.30;1.20;;;19.80;86.10;;;;;;5117657;28;20523;-92
2022/07/13 01:00:11;;;;;;;1.40;1.30;;;19.80;86.20;;;;;;5118801;28;20879;-92
2022/07/13 01:02:37;;;;;;;1.60;1.23;;;19.70;86.30;;;;;;5117784;28;20203;-96
2022/07/13 01:05:04;;;;;;;1.80;0.90;;;19.70;86.50;;;;;;5118596;28;20404;-95
2022/07/13 01:07:33;;;;;;;3.53;1.80;;;19.60;86.50;;;;;;5118719;28;20557;-96
2022/07/13 01:10:00;;;;;;;1.63;1.40;;;19.70;86.60;;;;;;5119357;28;20411;-96
2022/07/13 01:12:30;;;;;;;1.47;1.17;;;19.60;86.50;;;;;;5117674;28;20475;-92
2022/07/13 01:14:59;;;;;;;1.23;1.20;;;19.60;86.70;;;;;;5118520;28;20493;-91
2022/07/13 01:17:31;;;;;;;1.87;1.50;;;19.50;86.80;;;;;;5117316;28;20525;-94
2022/07/13 01:19:57;;;;;;;1.60;1.37;;;19.50;87.00;;;;;;5117410;28;20486;-96
2022/07/13 01:22:31;;;;;;;3.20;1.50;;;19.50;87.10;;;;;;5118608;28;20444;-95
2022/07/13 01:24:58;;;;;;;3.70;1.27;;;19.40;87.30;;;;;;5121506;28;20393;-93
2022/07/13 01:27:24;;;;;;;2.13;1.70;;;19.30;87.40;;;;;;5120399;28;20975;-96
2022/07/13 01:29:49;;;;;;;1.27;1.17;;;19.30;87.70;;;;;;5118684;28;20439;-92
2022/07/13 01:32:15;;;;;;;3.13;1.47;;;19.30;88.50;;;;;;5116860;28;20221;-91
2022/07/13 01:34:41;;;;;;;1.10;1.10;;;19.20;87.90;;;;;;5118151;28;20669;-92
2022/07/13 01:37:07;;;;;;;2.77;1.83;;;19.20;88.00;;;;;;5117265;28;20659;-96
2022/07/13 01:39:35;;;;;;;1.77;1.40;;;19.20;88.10;;;;;;5119144;28;20176;-93
2022/07/13 01:42:01;;;;;;;1.40;1.30;;;19.20;88.20;;;;;;5116911;28;20965;-92
2022/07/13 01:44:26;;;;;;;1.40;1.30;;;19.10;88.30;;;;;;5116646;28;20466;-95
2022/07/13 01:46:52;;;;;;;1.70;1.60;;;19.10;88.40;;;;;;5116560;28;20195;-93
2022/07/13 01:49:22;;;;;;;1.53;1.43;;;19.10;88.60;;;;;;5117875;28;20176;-94
2022/07/13 01:51:48;;;;;;;3.13;1.50;;;19.00;88.70;;;;;;5117374;28;20222;-90
2022/07/13 01:54:14;;;;;;;2.27;1.63;;;19.00;88.90;;;;;;5117953;28;20428;-92
2022/07/13 01:56:40;;;;;;;2.03;1.70;;;19.00;89.00;;;;;;5116369;28;20447;-95
2022/07/13 01:59:05;;;;;;;2.80;2.07;;;19.00;89.20;;;;;;5116858;28;20222;-92
2022/07/13 02:01:31;;;;;;;2.20;1.83;;;18.90;89.30;;;;;;5116400;28;20201;-95
2022/07/13 02:03:57;;;;;;;4.00;1.97;;;18.90;89.40;;;;;;5119147;28;20205;-94
2022/07/13 02:06:23;;;;;;;1.83;1.50;;;18.90;89.50;;;;;;5119339;27;20231;-95
2022/07/13 02:08:48;;;;;;;2.43;1.80;;;18.90;89.60;;;;;;5117556;28;20176;-94
2022/07/13 02:11:16;;;;;;;2.70;1.70;;;18.90;89.60;;;;;;5116570;28;20183;-95
2022/07/13 02:13:45;;;;;;;2.10;1.90;;;18.90;89.80;;;;;;5118205;28;20204;-95
2022/07/13 02:16:13;;;;;;;3.00;1.93;;;18.90;89.80;;;;;;5120213;27;20407;-95
2022/07/13 02:18:38;;;;;;;3.37;2.00;;;18.90;89.90;;;;;;5127347;28;20412;-92
2022/07/13 02:21:05;;;;;;;2.20;2.00;;;18.90;90.00;;;;;;5117631;28;20443;-92
2022/07/13 02:23:30;;;;;;;2.77;2.00;;;18.80;90.00;;;;;;5116408;28;20207;-95
2022/07/13 02:25:56;;;;;;;1.57;1.30;;;18.80;90.10;;;;;;5116162;28;20405;-95
2022/07/13 02:28:22;;;;;;;2.70;2.10;;;18.80;90.10;;;;;;5115814;28;20438;-95
2022/07/13 02:30:48;;;;;;;3.67;1.77;;;18.80;90.20;;;;;;5117049;28;20919;-93
2022/07/13 02:33:13;;;;;;;2.23;1.60;;;18.70;90.20;;;;;;5118291;28;20208;-92
2022/07/13 02:35:39;;;;;;;6.17;1.90;;;18.70;90.30;;;;;;5116174;28;20569;-92
2022/07/13 02:38:05;;;;;;;2.10;1.90;;;18.60;90.30;;;;;;5117172;28;20211;-92
2022/07/13 02:40:30;;;;;;;3.43;2.03;;;18.60;90.40;;;;;;5115900;28;20191;-95
2022/07/13 02:42:56;;;;;;;2.13;1.87;;;18.60;90.50;;;;;;5115813;28;20203;-95
2022/07/13 02:45:22;;;;;;;1.73;1.63;;;18.50;90.60;;;;;;5116199;28;20180;-92
2022/07/13 02:47:47;;;;;;;1.43;1.30;;;18.50;90.60;;;;;;5117208;28;20287;-92
2022/07/13 02:50:13;;;;;;;4.70;2.23;;;18.40;90.70;;;;;;5115610;28;20315;-95
2022/07/13 02:52:39;;;;;;;2.67;2.00;;;18.40;90.80;;;;;;5116942;28;20262;-95
2022/07/13 02:55:06;;;;;;;1.57;1.47;;;18.40;90.90;;;;;;5116554;28;20419;-95
2022/07/13 02:57:31;;;;;;;7.87;2.17;;;18.30;90.90;;;;;;5114807;28;20463;-93
2022/07/13 02:59:58;;;;;;;1.83;1.73;;;18.30;91.00;;;;;;5117238;28;20408;-92
2022/07/13 03:02:24;;;;;;;2.60;1.50;;;18.30;91.00;;;;;;5115671;28;20200;-95
2022/07/13 03:04:49;;;;;;;4.10;2.20;;;18.30;91.00;;;;;;5116202;28;20434;-94
2022/07/13 03:07:15;;;;;;;4.80;1.60;;;18.30;91.10;;;;;;5117252;28;20231;-95
2022/07/13 03:09:41;;;;;;;1.77;1.67;;;18.30;91.10;;;;;;5115417;28;20270;-92
2022/07/13 03:12:07;;;;;;;2.83;1.60;;;18.40;91.10;;;;;;5117368;28;20264;-92
2022/07/13 03:14:32;;;;;;;2.70;2.00;;;18.40;91.10;;;;;;5125775;28;20416;-94
2022/07/13 03:16:58;;;;;;;2.20;2.00;;;18.40;91.10;;;;;;5115881;28;20200;-95
2022/07/13 03:19:24;;;;;;;1.67;1.57;;;18.40;91.10;;;;;;5116065;28;20176;-95
2022/07/13 03:21:49;;;;;;;1.60;1.50;;;18.40;91.20;;;;;;5114976;28;20200;-96
2022/07/13 03:24:15;;;;;;;2.43;1.73;;;18.40;91.20;;;;;;5114909;28;20275;-92
2022/07/13 03:26:41;;;;;;;1.50;1.40;;;18.40;91.30;;;;;;5115870;28;20207;-92
2022/07/13 03:29:07;;;;;;;2.80;2.10;;;18.40;91.40;;;;;;5117340;28;20629;-95
2022/07/13 03:31:32;;;;;;;1.53;1.43;;;18.30;91.40;;;;;;5115878;28;20622;-92
2022/07/13 03:33:58;;;;;;;3.53;1.47;;;18.30;91.50;;;;;;5116311;28;20515;-96
2022/07/13 03:36:23;;;;;;;2.40;1.80;;;18.30;91.60;;;;;;5114989;28;20229;-96
2022/07/13 03:38:49;;;;;;;6.90;1.90;;;18.30;91.70;;;;;;5114815;28;20180;-92
2022/07/13 03:41:15;;;;;;;1.47;1.37;;;18.30;91.80;;;;;;5115239;28;20271;-93
2022/07/13 03:43:40;;;;;;;17.93;9.47;;;18.20;91.80;;;;;;5118152;28;20222;-92
2022/07/13 03:46:06;;;;;;;9.07;6.90;;;18.30;92.20;;;;;;5114665;28;20180;-93
2022/07/13 03:48:32;;;;;;;7.53;3.93;;;18.30;91.90;;;;;;5114545;28;20624;-95
2022/07/13 03:50:58;;;;;;;5.07;2.33;;;18.30;92.00;;;;;;5115553;28;20646;-95
2022/07/13 03:53:23;;;;;;;1.93;1.60;;;18.30;92.00;;;;;;5119711;28;20219;-93
2022/07/13 03:55:49;;;;;;;2.83;1.73;;;18.30;92.10;;;;;;5120322;28;20215;-93
2022/07/13 03:58:15;;;;;;;1.50;1.40;;;18.30;92.20;;;;;;5114330;28;20199;-93
2022/07/13 04:00:41;;;;;;;5.17;1.83;;;18.30;92.20;;;;;;5114345;28;20180;-95
2022/07/13 04:03:06;;;;;;;1.90;1.40;;;18.30;92.20;;;;;;5115368;28;20186;-93
2022/07/13 04:05:32;;;;;;;2.33;1.50;;;18.30;92.30;;;;;;5115093;28;20171;-93
2022/07/13 04:07:58;;;;;;;2.20;1.83;;;18.40;92.30;;;;;;5115064;28;20221;-93
2022/07/13 04:10:23;;;;;;;1.60;1.50;;;18.40;92.30;;;;;;5119253;28;20687;-93
2022/07/13 04:12:50;;;;;;;1.87;1.67;;;18.40;92.30;;;;;;5115727;28;20211;-96
2022/07/13 04:15:16;;;;;;;3.30;1.50;;;18.50;92.40;;;;;;5114208;28;20236;-93
2022/07/13 04:17:43;;;;;;;1.53;1.40;;;18.50;92.40;;;;;;5114145;28;20535;-93
2022/07/13 04:20:10;;;;;;;1.90;1.70;;;18.50;92.50;;;;;;5114252;28;20419;-95
2022/07/13 04:22:36;;;;;;;2.00;1.67;;;18.50;92.60;;;;;;5114067;28;20443;-95
2022/07/13 04:25:05;;;;;;;3.90;1.67;;;18.50;92.60;;;;;;5115144;28;20518;-95
2022/07/13 04:27:31;;;;;;;1.30;1.20;;;18.50;92.60;;;;;;5116341;28;20428;-96
2022/07/13 04:29:57;;;;;;;1.80;1.70;;;18.60;92.60;;;;;;5114210;28;20423;-95
2022/07/13 04:32:22;;;;;;;1.83;1.40;;;18.60;92.60;;;;;;5113928;28;21015;-94
2022/07/13 04:34:48;;;;;;;1.53;1.43;;;18.70;92.70;;;;;;5115770;28;20175;-95
2022/07/13 04:37:18;;;;;;;2.80;1.90;;;18.70;92.70;;;;;;5121423;28;20607;-95
2022/07/13 04:39:43;;;;;;;2.00;1.50;;;18.70;92.70;;;;;;5105671;28;20204;-94
2022/07/13 04:42:09;;;;;;;2.63;1.60;;;18.80;92.60;;;;;;5119427;28;20439;-93
2022/07/13 04:44:35;;;;;;;1.50;1.40;;;18.80;92.60;;;;;;5115386;28;20267;-93
2022/07/13 04:47:00;;;;;;;9.63;1.87;;;18.90;92.50;;;;;;5115108;28;20248;-93
2022/07/13 04:49:26;;;;;;;1.93;1.80;;;18.90;92.50;;;;;;5115349;28;20211;-93
2022/07/13 04:51:52;;;;;;;2.43;1.67;;;19.00;92.50;;;;;;5113859;28;20220;-96
2022/07/13 04:54:21;;;;;;;1.90;1.47;;;19.00;92.50;;;;;;5116585;28;20501;-93
2022/07/13 04:56:48;;;;;;;3.33;1.70;;;19.10;92.50;;;;;;5114230;28;20200;-93
2022/07/13 04:59:15;;;;;;;2.03;1.33;;;19.10;92.50;;;;;;5113824;28;20420;-95
2022/07/13 05:01:41;;;;;;;3.00;1.93;;;19.20;92.50;;;;;;5112333;28;20442;-93
2022/07/13 05:04:07;;;;;;;2.30;1.83;;;19.30;92.50;;;;;;5095617;28;20437;-93
2022/07/13 05:06:33;;;;;;;3.10;1.70;;;19.30;92.50;;;;;;5092542;28;20467;-96
2022/07/13 05:08:59;;;;;;;2.13;2.00;;;19.40;92.40;;;;;;5094462;28;20506;-96
2022/07/13 05:11:25;;;;;;;1.60;1.50;;;19.50;92.30;;;;;;5099470;28;20464;-93
2022/07/13 05:13:51;;;;;;;2.03;1.40;;;19.50;92.30;;;;;;5118724;28;20457;-93
2022/07/13 05:16:18;;;;;;;2.27;1.73;;;19.60;92.10;;;;;;5095863;28;20460;-96
2022/07/13 05:18:43;;;;;;;1.80;1.70;;;19.70;92.10;;;;;;5093261;28;20427;-93
2022/07/13 05:21:10;;;;;;;7.40;2.37;;;19.80;91.90;;;;;;5092724;28;20459;-96
2022/07/13 05:23:36;;;;;;;3.03;2.07;;;19.90;91.80;;;;;;5100187;28;20244;-93
2022/07/13 05:26:03;;;;;;;2.70;1.97;;;20.00;91.70;;;;;;5095683;28;20498;-93
2022/07/13 05:28:29;;;;;;;1.93;1.63;;;20.00;92.00;;;;;;5097287;28;20426;-93
2022/07/13 05:30:55;;;;;;;2.90;1.83;;;20.10;91.60;;;;;;5097073;28;20415;-94
2022/07/13 05:33:21;;;;;;;2.10;1.80;;;20.20;91.60;;;;;;5096921;28;20513;-93
2022/07/13 05:35:47;;;;;;;2.33;1.80;;;20.20;91.40;;;;;;5097137;28;20271;-94
2022/07/13 05:38:13;;;;;;;2.53;1.70;;;20.30;91.40;;;;;;5096322;28;20192;-96
2022/07/13 05:40:38;;;;;;;2.80;1.40;;;20.40;91.40;;;;;;5096459;28;20182;-94
2022/07/13 05:43:05;;;;;;;1.53;1.43;;;20.50;91.20;;;;;;5109674;28;20960;-96
2022/07/13 05:45:31;;;;;;;1.87;1.70;;;20.60;91.30;;;;;;5118382;28;20243;-95
2022/07/13 05:47:59;;;;;;;2.70;1.67;;;20.70;91.20;;;;;;5109971;28;20459;-94
2022/07/13 05:50:25;;;;;;;1.27;1.17;;;20.80;90.90;;;;;;5096302;28;20183;-92
2022/07/13 05:52:51;;;;;;;2.07;1.60;;;20.90;90.80;;;;;;5111166;28;20523;-95
2022/07/13 05:55:17;;;;;;;1.70;1.60;;;20.90;90.70;;;;;;5101746;28;20183;-96
2022/07/13 05:57:44;;;;;;;1.83;1.63;;;21.00;90.40;;;;;;5116454;28;20423;-96
2022/07/13 06:00:13;;;;;;;2.20;1.57;;;21.10;90.40;;;;;;5105085;28;20326;-95
2022/07/13 06:02:42;;;;;;;2.00;1.80;;;21.20;90.30;;;;;;5103978;28;20434;-96
2022/07/13 06:05:09;;;;;;;1.73;1.30;;;21.30;90.50;;;;;;5104874;28;20582;-96
2022/07/13 06:07:35;;;;;;;2.13;1.40;;;21.40;90.70;;;;;;5098299;28;20476;-96
2022/07/13 06:10:01;;;;;;;2.03;1.50;;;21.40;90.50;;;;;;5108502;28;20424;-96
2022/07/13 06:12:27;;;;;;;1.27;1.17;;;21.50;90.60;;;;;;5115021;28;20516;-93
2022/07/13 06:14:54;;;;;;;1.30;1.20;;;21.60;90.50;;;;;;5093400;28;20432;-93
2022/07/13 06:17:20;;;;;;;1.50;1.40;;;21.70;90.40;;;;;;5103571;28;20412;-93
2022/07/13 06:19:47;;;;;;;3.03;1.47;;;21.80;90.20;;;;;;5113139;28;20426;-93
2022/07/13 06:22:12;;;;;;;2.40;1.40;;;21.80;90.00;;;;;;5114349;28;20461;-93
2022/07/13 06:24:44;;;;;;;3.60;1.37;;;21.90;90.00;;;;;;5111116;28;20452;-93
2022/07/13 06:27:10;;;;;;;1.70;1.60;;;22.00;89.30;;;;;;5100819;28;20251;-94
2022/07/13 06:29:36;;;;;;;2.47;1.17;;;22.10;89.50;;;;;;5101585;28;20465;-93
2022/07/13 06:32:02;;;;;;;2.30;1.40;;;22.10;89.40;;;;;;5105695;28;20590;-95
2022/07/13 06:34:27;;;;;;;2.70;1.63;;;22.20;88.90;;;;;;5109847;28;21029;-93
2022/07/13 06:36:53;;;;;;;1.30;1.20;;;22.30;88.90;;;;;;5094599;28;20586;-96
2022/07/13 06:39:19;;;;;;;1.77;1.20;;;22.40;88.50;;;;;;5091902;28;20588;-93
2022/07/13 06:41:45;;;;;;;1.50;1.40;;;22.50;88.60;;;;;;5091474;28;20196;-96
2022/07/13 06:44:11;;;;;;;1.40;1.30;;;22.50;88.30;;;;;;5091660;28;20184;-93
2022/07/13 06:46:37;;;;;;;1.60;1.47;;;22.60;88.10;;;;;;5091486;28;20456;-96
2022/07/13 06:49:03;;;;;;;1.90;1.27;;;22.70;88.20;;;;;;5089927;28;20513;-93
2022/07/13 06:51:28;;;;;;;1.53;1.20;;;22.80;88.00;;;;;;5103158;28;20448;-96
2022/07/13 06:53:54;;;;;;;1.20;1.13;;;22.80;87.40;;;;;;5109436;28;20229;-96
2022/07/13 06:56:23;;;;;;;0.83;0.83;;;22.90;87.50;;;;;;5105241;28;20201;-95
2022/07/13 06:58:49;;;;;;;1.20;1.10;;;23.00;87.70;;;;;;5099382;28;20196;-95
2022/07/13 07:01:15;;;;;;;1.13;1.03;;;23.00;86.60;;;;;;5104314;28;20412;-93
2022/07/13 07:03:41;;;;;;;1.63;1.17;;;23.10;86.80;;;;;;5104428;28;20242;-94
2022/07/13 07:06:07;;;;;;;1.50;1.40;;;23.20;86.80;;;;;;5099844;28;20456;-93
2022/07/13 07:08:34;;;;;;;5.33;1.40;;;23.20;86.60;;;;;;5110354;28;20438;-96
2022/07/13 07:11:00;;;;;;;2.97;1.30;;;23.30;85.80;;;;;;5110339;28;20445;-96
2022/07/13 07:13:25;;;;;;;1.50;1.40;;;23.40;86.50;;;;;;5111983;28;20512;-93
2022/07/13 07:16:00;;;;;;;1.60;1.10;;;23.40;86.30;;;;;;5115290;28;20172;-93
2022/07/13 07:18:27;;;;;;;1.37;1.27;;;23.50;86.20;;;;;;5101972;28;20549;-95
2022/07/13 07:20:53;;;;;;;1.27;1.27;;;23.50;86.30;;;;;;5092039;28;20826;-94
2022/07/13 07:23:18;;;;;;;1.23;1.13;;;23.60;86.20;;;;;;5094812;28;20461;-94
2022/07/13 07:25:44;;;;;;;1.20;1.10;;;23.60;85.80;;;;;;5096758;28;20438;-93
2022/07/13 07:28:10;;;;;;;1.30;1.20;;;23.70;86.00;;;;;;5105034;28;20200;-96
2022/07/13 07:30:36;;;;;;;1.30;1.20;;;23.80;85.80;;;;;;5128942;27;20181;-94
2022/07/13 07:33:03;;;;;;;1.40;1.30;;;23.80;86.00;;;;;;5112418;28;20458;-95
2022/07/13 07:35:32;;;;;;;1.23;1.13;;;23.90;86.50;;;;;;5109750;28;20488;-95
2022/07/13 07:37:57;;;;;;;2.20;1.20;;;23.90;85.90;;;;;;5113384;28;20765;-93
2022/07/13 07:40:24;;;;;;;1.20;1.10;;;24.00;85.30;;;;;;5095859;28;20439;-92
2022/07/13 07:42:49;;;;;;;1.30;1.20;;;24.10;85.50;;;;;;5096613;28;20617;-92
2022/07/13 07:45:16;;;;;;;1.37;1.20;;;24.10;85.20;;;;;;5116264;28;20535;-94
2022/07/13 07:47:41;;;;;;;1.70;1.00;;;24.20;85.50;;;;;;5111646;28;20221;-93
2022/07/13 07:50:08;;;;;;;1.10;1.03;;;24.20;84.60;;;;;;5112728;28;20980;-94
2022/07/13 07:52:33;;;;;;;5.40;1.50;;;24.30;84.80;;;;;;5111296;28;20235;-93
2022/07/13 07:54:59;;;;;;;3.30;1.20;;;24.30;84.50;;;;;;5110628;28;20424;-93
2022/07/13 07:57:25;;;;;;;0.80;0.80;;;24.40;84.50;;;;;;5111580;28;20314;-94
2022/07/13 07:59:51;;;;;;;1.93;1.10;;;24.50;84.60;;;;;;5109252;28;20182;-96
2022/07/13 08:02:16;;;;;;;1.47;1.37;;;24.60;84.50;;;;;;5111334;28;20454;-93
2022/07/13 08:04:44;;;;;;;2.20;1.23;;;24.60;84.20;;;;;;5111973;28;20185;-94
2022/07/13 08:07:10;;;;;;;1.33;1.23;;;24.60;84.00;;;;;;5110750;28;20233;-93
2022/07/13 08:09:36;;;;;;;6.50;1.70;;;24.70;83.80;;;;;;5111854;28;20460;-93
2022/07/13 08:12:04;;;;;;;1.50;0.90;;;24.70;83.90;;;;;;5110697;28;20975;-95
2022/07/13 08:14:30;;;;;;;1.17;1.07;;;24.80;84.00;;;;;;5127289;27;20210;-95
2022/07/13 08:16:56;;;;;;;1.37;0.87;;;24.90;82.70;;;;;;5116565;28;20524;-95
2022/07/13 08:19:23;;;;;;;1.37;1.27;;;24.90;83.60;;;;;;5096917;28;20426;-91
2022/07/13 08:21:49;;;;;;;0.77;0.77;;;24.90;83.80;;;;;;5099706;28;20447;-88
2022/07/13 08:24:14;;;;;;;5.73;1.13;;;24.90;84.10;;;;;;5100400;28;20707;-88
2022/07/13 08:26:40;;;;;;;1.10;1.10;;;25.00;83.60;;;;;;5096633;28;20229;-88
2022/07/13 08:29:06;;;;;;;2.07;0.93;;;25.00;83.20;;;;;;5090276;28;20170;-89
2022/07/13 08:31:32;;;;;;;0.97;0.90;;;25.00;83.30;;;;;;5089547;28;20562;-88
2022/07/13 08:39:26;;;;;;;1.47;0.80;;;25.20;81.80;;;;;;5105133;28;20537;-89
2022/07/13 08:41:52;;;;;;;2.53;0.90;;;25.30;81.90;;;;;;5092818;28;20456;-90
2022/07/13 08:44:18;;;;;;;3.60;1.10;;;25.40;80.20;;;;;;5094152;28;20444;-90
2022/07/13 08:46:44;;;;;;;5.20;1.00;;;25.50;82.30;;;;;;5098629;28;20196;-90
2022/07/13 08:49:10;;;;;;;3.63;1.00;;;25.50;81.40;;;;;;5096297;28;20995;-88
2022/07/13 08:51:37;;;;;;;1.07;1.00;;;25.60;80.20;;;;;;5088758;28;20667;-90
2022/07/13 08:54:07;;;;;;;1.53;1.00;;;25.60;80.50;;;;;;5107982;28;20508;-88
2022/07/13 08:56:33;;;;;;;1.30;0.97;;;25.60;80.80;;;;;;5102044;28;20987;-88
2022/07/13 08:58:59;;;;;;;2.00;0.80;;;25.60;80.80;;;;;;5101330;28;20436;-89
2022/07/13 09:01:25;;;;;;;0.90;0.90;;;25.60;81.70;;;;;;5109971;28;20206;-88
2022/07/13 09:03:51;;;;;;;0.80;0.80;;;25.60;81.80;;;;;;5104647;28;20470;-90
2022/07/13 09:06:39;;;;;;;1.00;1.00;;;25.60;81.90;;;;;;5109199;28;20906;-90
2022/07/13 09:09:22;;;;;;;1.00;0.90;;;25.80;81.30;;;;;;5107909;28;20809;-91
2022/07/13 09:11:48;;;;;;;2.77;1.10;;;25.80;81.00;;;;;;5106138;28;20545;-90
2022/07/13 09:14:26;;;;;;;5.40;0.80;;;25.80;81.30;;;;;;5101261;28;20527;-91
2022/07/13 09:16:52;;;;;;;8.53;1.37;;;25.90;80.30;;;;;;5110830;28;20546;-89
2022/07/13 09:19:23;;;;;;;6.03;1.50;;;25.90;80.60;;;;;;5111750;28;20467;-89
2022/07/13 09:21:49;;;;;;;1.43;0.90;;;26.00;80.10;;;;;;5105399;28;20450;-91
2022/07/13 09:24:14;;;;;;;2.43;1.23;;;26.00;80.30;;;;;;5110709;28;20962;-92
2022/07/13 09:26:46;;;;;;;1.17;1.07;;;26.20;80.00;;;;;;5099032;28;20204;-91
2022/07/13 09:29:12;;;;;;;1.90;0.97;;;26.20;79.40;;;;;;5114101;28;20198;-90
2022/07/13 09:31:52;;;;;;;2.50;1.00;;;26.20;80.10;;;;;;5106346;28;20444;-89
2022/07/13 09:34:19;;;;;;;4.87;0.90;;;26.30;79.50;;;;;;5109213;27;20464;-89
2022/07/13 09:36:45;;;;;;;0.93;0.93;;;26.30;78.80;;;;;;5117127;28;20443;-90
2022/07/13 09:39:11;;;;;;;1.17;1.00;;;26.40;79.40;;;;;;5113301;28;20538;-90
2022/07/13 09:41:37;;;;;;;1.00;0.90;;;26.40;79.10;;;;;;5117363;28;20214;-91
2022/07/13 09:47:03;;;;;;;1.70;1.00;;;26.50;78.90;;;;;;5100780;28;20453;-89
2022/07/13 09:49:52;;;;;;;2.20;0.70;;;26.50;79.10;;;;;;5123723;27;20971;-90
2022/07/13 09:52:18;;;;;;;1.60;1.00;;;26.60;79.50;;;;;;5112050;28;20466;-90
2022/07/13 09:54:50;;;;;;;2.17;1.00;;;26.60;78.50;;;;;;5103751;28;20434;-91
2022/07/13 09:57:18;;;;;;;4.40;1.20;;;26.60;78.40;;;;;;5105278;28;20218;-92
2022/07/13 09:59:44;;;;;;;0.90;0.90;;;26.70;77.90;;;;;;5098910;28;20432;-91
2022/07/13 10:02:11;;;;;;;1.50;0.90;;;26.70;77.60;;;;;;5095951;28;20445;-91
2022/07/13 10:04:37;;;;;;;3.43;1.30;;;26.60;78.70;;;;;;5099300;28;20487;-90
2022/07/13 10:07:04;;;;;;;2.60;1.03;;;26.70;78.50;;;;;;5108165;28;20475;-90
2022/07/13 10:09:30;;;;;;;0.90;0.90;;;26.70;78.30;;;;;;5096287;28;20648;-90
2022/07/13 10:11:57;;;;;;;1.47;0.97;;;26.70;78.30;;;;;;5111336;28;20455;-89
2022/07/13 10:14:24;;;;;;;1.37;1.00;;;26.80;78.60;;;;;;5100472;28;20446;-89
2022/07/13 10:16:52;;;;;;;1.17;1.03;;;26.80;77.30;;;;;;5097380;28;20977;-93
2022/07/13 10:19:19;;;;;;;1.80;0.90;;;26.90;77.80;;;;;;5105369;28;20450;-95
2022/07/13 10:22:09;;;;;;;3.53;0.93;;;27.00;77.70;;;;;;5093490;28;20452;-94
2022/07/13 10:24:36;;;;;;;3.00;1.00;;;27.10;77.50;;;;;;5095613;28;20454;-93
2022/07/13 10:27:25;;;;;;;2.60;1.00;;;27.00;78.40;;;;;;5099289;28;20492;-93
2022/07/13 10:30:03;;;;;;;2.30;1.10;;;27.00;78.40;;;;;;5100047;28;20543;-95
2022/07/13 10:32:30;;;;;;;1.10;1.00;;;26.90;78.30;;;;;;5097234;28;20524;-93
2022/07/13 10:35:01;;;;;;;3.73;1.77;;;26.80;78.50;;;;;;5108037;28;20466;-93
2022/07/13 10:37:27;;;;;;;1.33;1.10;;;26.50;79.30;;;;;;5109899;28;20452;-95
2022/07/13 10:40:10;;;;;;;1.03;0.80;;;26.40;79.30;;;;;;5113918;28;20422;-94
2022/07/13 10:42:56;;;;;;;0.80;0.80;;;26.30;79.70;;;;;;5105080;28;20460;-94
2022/07/13 10:45:41;;;;;;;1.53;1.10;;;26.60;77.90;;;;;;5105656;28;20551;-92
2022/07/13 10:48:22;;;;;;;0.90;0.80;;;26.70;78.00;;;;;;5101176;28;20437;-94
2022/07/13 10:50:56;;;;;;;1.10;1.00;;;26.80;76.70;;;;;;5109503;28;20435;-93
2022/07/13 10:53:45;;;;;;;3.13;1.30;;;27.00;76.50;;;;;;5113823;28;20585;-94
2022/07/13 10:56:18;;;;;;;0.83;0.80;;;27.10;76.00;;;;;;5114018;28;20441;-94
2022/07/13 10:58:45;;;;;;;1.93;1.13;;;27.20;75.80;;;;;;5098689;28;20436;-94
2022/07/13 11:01:49;;;;;;;1.60;1.10;;;27.30;75.50;;;;;;5101847;28;20424;-93
2022/07/13 11:04:18;;;;;;;2.50;1.17;;;27.40;75.50;;;;;;5075450;28;20567;-93
2022/07/13 11:07:04;;;;;;;1.80;1.17;;;27.50;75.00;;;;;;5086630;28;20554;-94
2022/07/13 11:09:30;;;;;;;2.70;2.50;;;27.60;74.50;;;;;;5109421;27;20451;-95
2022/07/13 11:11:56;;;;;;;1.10;1.00;;;27.70;74.00;;;;;;5100711;28;20459;-94
2022/07/13 11:14:39;;;;;;;1.10;0.97;;;27.80;74.20;;;;;;5105494;28;20219;-93
2022/07/13 11:17:18;;;;;;;4.00;1.10;;;27.80;74.40;;;;;;5098764;28;20226;-94
2022/07/13 11:20:00;;;;;;;5.53;1.00;;;27.90;73.40;;;;;;5106928;28;20869;-93
2022/07/13 11:25:13;;;;;;;1.40;1.10;;;28.00;72.80;;;;;;5100600;28;20512;-94
2022/07/13 11:25:55;;;;;;;1.10;0.87;;;28.00;72.40;;;;;;5093955;28;20445;-94
2022/07/13 11:28:31;;;;;;;1.90;0.90;;;28.00;73.90;;;;;;5103306;28;20554;-94
2022/07/13 11:30:57;;;;;;;1.37;0.90;;;28.00;73.30;;;;;;5111505;28;20470;-94
2022/07/13 11:33:23;;;;;;;0.90;0.90;;;28.00;73.30;;;;;;5099534;28;20519;-95
2022/07/13 11:35:50;;;;;;;1.07;0.80;;;28.10;72.50;;;;;;5103443;28;20188;-93
2022/07/13 11:38:19;;;;;;;5.57;1.17;;;28.20;71.30;;;;;;5105740;28;20455;-95
2022/07/13 11:40:45;;;;;;;2.53;0.93;;;28.20;69.50;;;;;;5098256;28;20429;-94
2022/07/13 11:43:12;;;;;;;2.63;0.70;;;28.30;70.30;;;;;;5110177;28;20459;-93
2022/07/13 11:45:40;;;;;;;1.73;1.63;;;28.30;69.10;;;;;;5101520;28;20428;-94
2022/07/13 11:48:10;;;;;;;1.90;1.10;;;28.30;68.60;;;;;;5099852;28;20530;-94
2022/07/13 11:50:39;;;;;;;5.43;1.00;;;28.40;69.30;;;;;;5091146;28;20425;-93
2022/07/13 11:53:06;;;;;;;4.23;0.93;;;28.40;69.60;;;;;;5094954;28;20472;-94
2022/07/13 11:55:32;;;;;;;1.80;0.80;;;28.40;70.40;;;;;;5103405;28;20510;-94
2022/07/13 11:58:01;;;;;;;1.10;0.90;;;28.50;70.30;;;;;;5097499;28;20477;-94
2022/07/13 12:00:28;;;;;;;1.13;1.03;;;28.60;70.90;;;;;;5094329;28;20440;-93
2022/07/13 12:02:55;;;;;;;0.93;0.93;;;28.60;70.70;;;;;;5104709;28;21048;-93
2022/07/13 12:05:27;;;;;;;5.83;1.20;;;28.60;70.50;;;;;;5105490;28;20490;-93
2022/07/13 12:08:05;;;;;;;2.60;1.20;;;28.60;71.60;;;;;;5111445;28;20471;-94
2022/07/13 12:10:34;;;;;;;2.17;0.93;;;28.70;70.80;;;;;;5112008;28;20410;-94
2022/07/13 12:13:01;;;;;;;0.97;0.70;;;28.70;69.60;;;;;;5105013;28;20484;-94
2022/07/13 12:15:27;;;;;;;0.97;0.87;;;28.70;67.70;;;;;;5104212;28;20425;-94
2022/07/13 12:17:53;;;;;;;4.00;1.10;;;28.80;66.90;;;;;;5097497;28;20506;-93
2022/07/13 12:20:23;;;;;;;1.67;1.40;;;28.80;67.20;;;;;;5110394;28;20441;-94
2022/07/13 12:22:52;;;;;;;2.63;0.83;;;28.90;68.80;;;;;;5096070;28;20449;-94
2022/07/13 12:25:32;;;;;;;1.13;1.00;;;28.90;69.30;;;;;;5109573;28;20433;-95
2022/07/13 12:28:00;;;;;;;2.73;1.07;;;28.90;69.60;;;;;;5096354;28;20445;-94
2022/07/13 12:30:27;;;;;;;5.80;1.00;;;28.90;68.40;;;;;;5107311;28;20434;-94
2022/07/13 12:32:59;;;;;;;1.07;0.80;;;29.00;67.80;;;;;;5122536;28;20465;-94
2022/07/13 12:35:38;;;;;;;3.90;1.27;;;29.00;68.20;;;;;;5122454;28;20435;-93
2022/07/13 12:38:08;;;;;;;2.30;1.20;;;29.00;67.30;;;;;;5102383;28;20451;-94
2022/07/13 12:40:55;;;;;;;3.83;1.20;;;29.00;66.40;;;;;;5105404;28;20919;-94
2022/07/13 12:43:25;;;;;;;0.93;0.93;;;29.00;68.30;;;;;;5112246;28;20466;-94
2022/07/13 12:46:00;;;;;;;0.63;0.63;;;29.10;68.30;;;;;;5109544;28;20466;-94
2022/07/13 12:48:34;;;;;;;1.30;0.80;;;29.10;65.80;;;;;;5129885;27;20438;-94
2022/07/13 12:51:05;;;;;;;2.00;0.93;;;29.20;66.30;;;;;;5116066;28;20427;-93
2022/07/13 12:53:52;;;;;;;1.47;1.37;;;29.20;67.40;;;;;;5108318;28;20490;-95
2022/07/13 12:56:19;;;;;;;5.07;1.33;;;29.30;68.30;;;;;;5097867;28;20440;-94
2022/07/13 12:58:51;;;;;;;4.47;1.40;;;29.30;67.80;;;;;;5112219;28;20457;-94
2022/07/13 13:01:27;;;;;;;3.83;1.17;;;29.40;67.60;;;;;;5111292;28;20438;-93